createdAt,value
2022-11-23T00:01:58.882Z,16.00
2022-11-23T00:04:27.380Z,16.00
2022-11-23T00:06:55.268Z,16.00
2022-11-23T00:09:23.609Z,16.00
2022-11-23T00:11:51.699Z,16.00
2022-11-23T00:14:21.143Z,16.00
2022-11-23T00:16:49.123Z,16.00
2022-11-23T00:19:17.651Z,16.00
2022-11-23T00:21:45.577Z,16.00
2022-11-23T00:24:13.784Z,16.00
2022-11-23T00:26:42.202Z,16.00
2022-11-23T00:29:10.315Z,16.00
2022-11-23T00:31:39.647Z,15.90
2022-11-23T00:34:07.631Z,15.90
2022-11-23T00:36:35.972Z,16.00
2022-11-23T00:39:03.941Z,16.00
2022-11-23T00:41:32.335Z,16.00
2022-11-23T00:44:00.265Z,16.00
2022-11-23T00:46:28.734Z,16.00
2022-11-23T00:48:58.476Z,16.00
2022-11-23T00:51:27.909Z,16.00
2022-11-23T00:53:56.010Z,16.00
2022-11-23T00:56:23.924Z,16.00
2022-11-23T00:58:52.267Z,16.00
2022-11-23T01:01:21.471Z,16.00
2022-11-23T01:03:50.516Z,16.00
2022-11-23T01:06:20.653Z,16.00
2022-11-23T01:08:50.406Z,15.90
2022-11-23T01:11:18.358Z,15.90
2022-11-23T01:13:46.642Z,16.00
2022-11-23T01:16:19.451Z,15.90
2022-11-23T01:18:54.020Z,16.00
2022-11-23T01:21:23.392Z,15.90
2022-11-23T01:23:51.723Z,15.90
2022-11-23T01:26:19.704Z,15.90
2022-11-23T01:28:48.151Z,15.90
2022-11-23T01:31:16.981Z,15.90
2022-11-23T01:33:44.935Z,15.90
2022-11-23T01:36:13.344Z,15.90
2022-11-23T01:38:43.396Z,15.90
2022-11-23T01:41:13.673Z,15.90
2022-11-23T01:43:41.854Z,15.90
2022-11-23T01:46:09.892Z,15.90
2022-11-23T01:48:39.211Z,15.90
2022-11-23T01:51:07.728Z,15.90
2022-11-23T01:53:36.293Z,15.90
2022-11-23T01:56:07.319Z,15.90
2022-11-23T01:58:38.012Z,15.90
2022-11-23T02:01:06.228Z,15.90
2022-11-23T02:03:34.292Z,15.90
2022-11-23T02:06:03.227Z,16.00
2022-11-23T02:08:31.244Z,15.90
2022-11-23T02:10:59.696Z,15.90
2022-11-23T02:13:29.228Z,15.90
2022-11-23T02:15:58.048Z,15.90
2022-11-23T02:18:26.818Z,15.90
2022-11-23T02:20:55.197Z,15.90
2022-11-23T02:23:30.930Z,15.90
2022-11-23T02:26:08.350Z,16.00
2022-11-23T02:28:37.792Z,16.00
2022-11-23T02:31:06.127Z,15.90
2022-11-23T02:33:34.072Z,16.00
2022-11-23T02:36:03.284Z,16.00
2022-11-23T02:38:32.798Z,15.90
2022-11-23T02:41:00.837Z,15.90
2022-11-23T02:43:30.305Z,15.90
2022-11-23T02:45:58.811Z,16.00
2022-11-23T02:48:27.239Z,16.00
2022-11-23T02:50:55.200Z,15.90
2022-11-23T02:53:23.127Z,16.00
2022-11-23T02:55:50.988Z,16.00
2022-11-23T02:58:19.153Z,16.00
2022-11-23T03:00:48.663Z,16.00
2022-11-23T03:03:17.136Z,16.00
2022-11-23T03:05:45.079Z,16.00
2022-11-23T03:08:13.433Z,16.00
2022-11-23T03:10:41.397Z,16.00
2022-11-23T03:13:09.327Z,16.00
2022-11-23T03:15:37.196Z,16.00
2022-11-23T03:18:07.266Z,16.00
2022-11-23T03:20:35.251Z,16.00
2022-11-23T03:23:03.358Z,16.00
2022-11-23T03:25:31.581Z,16.00
2022-11-23T03:27:59.543Z,16.00
2022-11-23T03:30:27.886Z,16.00
2022-11-23T03:32:55.859Z,16.00
2022-11-23T03:35:25.548Z,16.00
2022-11-23T03:37:53.497Z,16.00
2022-11-23T03:40:21.630Z,16.00
2022-11-23T03:42:49.597Z,16.00
2022-11-23T03:45:17.835Z,16.00
2022-11-23T03:47:45.828Z,16.00
2022-11-23T03:50:14.386Z,16.00
2022-11-23T03:52:43.702Z,16.00
2022-11-23T03:55:12.167Z,16.00
2022-11-23T03:57:40.149Z,16.00
2022-11-23T04:00:09.443Z,16.00
2022-11-23T04:02:37.534Z,16.00
2022-11-23T04:05:06.422Z,16.00
2022-11-23T04:07:34.486Z,16.00
2022-11-23T04:10:03.978Z,16.00
2022-11-23T04:12:32.342Z,16.00
2022-11-23T04:15:00.295Z,16.00
2022-11-23T04:17:28.675Z,16.00
2022-11-23T04:19:56.680Z,16.00
2022-11-23T04:22:25.121Z,16.00
2022-11-23T04:24:53.183Z,16.00
2022-11-23T04:27:22.552Z,16.00
2022-11-23T04:29:50.410Z,16.00
2022-11-23T04:32:18.218Z,16.00
2022-11-23T04:34:46.091Z,16.00
2022-11-23T04:37:14.456Z,16.00
2022-11-23T04:39:42.385Z,16.10
2022-11-23T04:42:10.811Z,16.00
2022-11-23T04:44:40.096Z,16.00
2022-11-23T04:47:08.066Z,16.00
2022-11-23T04:49:35.972Z,16.00
2022-11-23T04:52:03.965Z,16.00
2022-11-23T04:54:32.640Z,16.00
2022-11-23T04:57:00.563Z,16.00
2022-11-23T04:59:28.819Z,16.00
2022-11-23T05:01:58.401Z,16.00
2022-11-23T05:04:26.365Z,16.00
2022-11-23T05:06:54.284Z,16.00
2022-11-23T05:09:22.887Z,16.00
2022-11-23T05:11:50.791Z,16.00
2022-11-23T05:14:19.339Z,16.00
2022-11-23T05:16:47.269Z,16.10
2022-11-23T05:19:16.722Z,16.00
2022-11-23T05:21:44.788Z,16.10
2022-11-23T05:24:13.268Z,16.00
2022-11-23T05:26:41.116Z,16.00
2022-11-23T05:29:09.388Z,16.10
2022-11-23T05:31:37.381Z,16.00
2022-11-23T05:34:05.558Z,16.10
2022-11-23T05:36:38.438Z,16.00
2022-11-23T05:39:08.816Z,16.10
2022-11-23T05:41:36.850Z,16.00
2022-11-23T05:44:05.315Z,16.00
2022-11-23T05:46:33.291Z,16.00
2022-11-23T05:49:01.279Z,16.10
2022-11-23T05:51:29.306Z,16.10
2022-11-23T05:53:58.825Z,16.10
2022-11-23T05:56:26.851Z,16.10
2022-11-23T05:58:56.274Z,16.10
2022-11-23T06:01:24.722Z,16.10
2022-11-23T06:03:52.709Z,16.10
2022-11-23T06:06:20.682Z,16.00
2022-11-23T06:08:49.316Z,16.00
2022-11-23T06:11:18.816Z,16.10
2022-11-23T06:13:47.916Z,16.00
2022-11-23T06:16:16.912Z,16.10
2022-11-23T06:18:44.892Z,16.10
2022-11-23T06:21:13.374Z,16.00
2022-11-23T06:23:41.289Z,16.00
2022-11-23T06:26:09.732Z,16.10
2022-11-23T06:28:39.232Z,16.10
2022-11-23T06:31:08.356Z,16.10
2022-11-23T06:33:36.515Z,16.10
2022-11-23T06:36:04.801Z,16.10
2022-11-23T06:38:33.232Z,16.10
2022-11-23T06:41:01.393Z,16.10
2022-11-23T06:43:29.510Z,16.10
2022-11-23T06:45:58.918Z,16.10
2022-11-23T06:48:27.361Z,16.10
2022-11-23T06:50:55.287Z,16.10
2022-11-23T06:53:23.319Z,16.10
2022-11-23T06:55:51.273Z,16.10
2022-11-23T06:58:24.235Z,16.10
2022-11-23T07:00:52.153Z,16.10
2022-11-23T07:03:22.382Z,16.10
2022-11-23T07:05:50.421Z,16.10
2022-11-23T07:08:18.490Z,16.00
2022-11-23T07:10:46.596Z,16.10
2022-11-23T07:13:14.577Z,16.00
2022-11-23T07:15:43.066Z,16.10
2022-11-23T07:18:11.141Z,16.10
2022-11-23T07:20:41.020Z,16.00
2022-11-23T07:23:09.820Z,16.10
2022-11-23T07:25:38.295Z,16.10
2022-11-23T07:28:06.936Z,16.10
2022-11-23T07:30:35.238Z,16.10
2022-11-23T07:33:03.307Z,16.00
2022-11-23T07:35:32.300Z,16.10
2022-11-23T07:38:01.722Z,16.10
2022-11-23T07:40:30.520Z,16.00
2022-11-23T07:43:00.834Z,16.10
2022-11-23T07:45:29.252Z,16.10
2022-11-23T07:48:00.824Z,16.10
2022-11-23T07:50:29.169Z,16.10
2022-11-23T07:52:57.266Z,16.10
2022-11-23T07:55:26.884Z,16.10
2022-11-23T07:57:55.014Z,16.10
2022-11-23T08:00:23.704Z,16.10
2022-11-23T08:03:19.805Z,16.10
2022-11-23T08:05:40.120Z,16.10
2022-11-23T08:08:08.072Z,16.20
2022-11-23T08:10:42.031Z,16.10
2022-11-23T08:13:13.153Z,16.10
2022-11-23T08:15:41.534Z,16.20
2022-11-23T08:18:10.448Z,16.20
2022-11-23T08:20:38.312Z,16.20
2022-11-23T08:23:06.348Z,16.20
2022-11-23T08:25:34.843Z,16.20
2022-11-23T08:28:05.708Z,16.20
2022-11-23T08:30:33.960Z,16.20
2022-11-23T08:33:03.928Z,16.30
2022-11-23T08:35:31.902Z,16.20
2022-11-23T08:38:00.197Z,16.20
2022-11-23T08:40:28.238Z,16.20
2022-11-23T08:42:56.596Z,16.30
2022-11-23T08:45:26.026Z,16.20
2022-11-23T08:47:54.252Z,16.20
2022-11-23T08:50:22.728Z,16.30
2022-11-23T08:52:55.794Z,16.30
2022-11-23T08:55:23.888Z,16.30
2022-11-23T08:57:52.206Z,16.30
2022-11-23T09:00:21.309Z,16.30
2022-11-23T09:02:51.142Z,16.30
2022-11-23T09:05:19.228Z,16.30
2022-11-23T09:07:47.380Z,16.30
2022-11-23T09:10:18.650Z,16.40
2022-11-23T09:12:46.894Z,16.40
2022-11-23T09:15:14.868Z,16.40
2022-11-23T09:17:42.856Z,16.40
2022-11-23T09:20:13.339Z,16.40
2022-11-23T09:22:41.437Z,16.40
2022-11-23T09:25:10.369Z,16.50
2022-11-23T09:27:38.488Z,16.60
2022-11-23T09:30:07.535Z,16.60
2022-11-23T09:32:35.905Z,16.80
2022-11-23T09:35:04.222Z,16.90
2022-11-23T09:37:33.659Z,17.00
2022-11-23T09:40:01.767Z,17.00
2022-11-23T09:42:46.299Z,17.10
2022-11-23T09:45:20.833Z,17.10
2022-11-23T09:48:12.578Z,17.10
2022-11-23T09:50:46.987Z,17.20
2022-11-23T09:53:17.582Z,17.20
2022-11-23T09:55:46.520Z,17.30
2022-11-23T09:58:16.125Z,17.30
2022-11-23T10:00:45.579Z,17.30
2022-11-23T10:03:15.640Z,17.20
2022-11-23T10:05:44.879Z,17.20
2022-11-23T10:08:18.744Z,17.10
2022-11-23T10:10:48.501Z,17.20
2022-11-23T10:13:29.253Z,17.10
2022-11-23T10:16:05.472Z,17.20
2022-11-23T10:18:38.085Z,17.20
2022-11-23T10:21:11.134Z,17.20
2022-11-23T10:23:53.732Z,17.30
2022-11-23T10:26:23.025Z,17.30
2022-11-23T10:28:51.055Z,17.30
2022-11-23T10:31:19.883Z,17.30
2022-11-23T10:33:57.281Z,17.20
2022-11-23T10:36:25.720Z,17.20
2022-11-23T10:38:56.802Z,17.20
2022-11-23T10:41:24.881Z,17.20
2022-11-23T10:43:57.354Z,17.20
2022-11-23T10:46:28.634Z,17.20
2022-11-23T10:48:56.789Z,17.10
2022-11-23T10:51:29.065Z,17.30
2022-11-23T10:54:03.654Z,17.40
2022-11-23T10:56:33.337Z,17.40
2022-11-23T10:59:01.195Z,17.50
2022-11-23T11:01:30.217Z,17.50
2022-11-23T11:04:04.848Z,17.50
2022-11-23T11:06:34.277Z,17.60
2022-11-23T11:09:07.319Z,17.60
2022-11-23T11:11:38.610Z,17.50
2022-11-23T11:14:07.284Z,17.50
2022-11-23T11:16:45.190Z,17.40
2022-11-23T11:19:29.439Z,17.40
2022-11-23T11:21:57.369Z,17.50
2022-11-23T11:24:30.174Z,17.40
2022-11-23T11:26:59.927Z,17.40
2022-11-23T11:29:38.314Z,17.40
2022-11-23T11:32:09.171Z,17.50
2022-11-23T11:34:39.427Z,17.50
2022-11-23T11:37:13.501Z,17.50
2022-11-23T11:39:45.491Z,17.50
2022-11-23T11:42:17.713Z,17.50
2022-11-23T11:44:46.233Z,17.50
2022-11-23T11:47:20.259Z,17.50
2022-11-23T11:49:48.649Z,17.60
2022-11-23T11:52:19.341Z,17.70
2022-11-23T11:54:52.514Z,17.80
2022-11-23T11:57:21.967Z,17.90
2022-11-23T11:59:54.964Z,18.00
2022-11-23T12:02:25.470Z,18.10
2022-11-23T12:05:03.060Z,18.30
2022-11-23T12:07:34.623Z,18.40
2022-11-23T12:10:07.164Z,18.50
2022-11-23T12:12:36.878Z,18.60
2022-11-23T12:15:26.257Z,18.60
2022-11-23T12:18:12.739Z,18.70
2022-11-23T12:20:44.706Z,18.70
2022-11-23T12:23:19.349Z,18.70
2022-11-23T12:25:52.277Z,18.70
2022-11-23T12:28:31.393Z,18.80
2022-11-23T12:31:03.313Z,18.90
2022-11-23T12:33:55.940Z,19.00
2022-11-23T12:36:33.879Z,19.00
2022-11-23T12:39:07.632Z,19.20
2022-11-23T12:41:40.867Z,19.20
2022-11-23T12:44:39.569Z,19.30
2022-11-23T12:47:13.337Z,19.40
2022-11-23T12:49:46.844Z,19.60
2022-11-23T12:52:26.902Z,19.80
2022-11-23T12:55:00.911Z,20.00
2022-11-23T12:57:32.676Z,20.30
2022-11-23T13:00:03.172Z,20.70
2022-11-23T13:03:01.848Z,21.00
2022-11-23T13:05:57.037Z,21.40
2022-11-23T13:08:43.892Z,21.60
2022-11-23T13:11:19.142Z,21.80
2022-11-23T13:13:55.946Z,21.90
2022-11-23T13:16:43.806Z,22.00
2022-11-23T13:19:23.625Z,22.10
2022-11-23T13:21:51.498Z,22.10
2022-11-23T13:24:26.473Z,22.00
2022-11-23T13:27:32.335Z,21.90
2022-11-23T13:30:02.692Z,21.80
2022-11-23T13:32:46.262Z,21.70
2022-11-23T13:35:47.499Z,21.60
2022-11-23T13:38:40.202Z,21.60
2022-11-23T13:41:55.810Z,21.50
2022-11-23T13:44:25.821Z,21.50
2022-11-23T13:47:03.713Z,21.40
2022-11-23T13:49:38.601Z,21.50
2022-11-23T13:52:22.989Z,21.40
2022-11-23T13:54:56.208Z,21.50
2022-11-23T13:57:24.330Z,21.50
2022-11-23T13:59:52.723Z,21.50
2022-11-23T14:02:31.213Z,21.50
2022-11-23T14:05:33.124Z,21.40
2022-11-23T14:08:01.689Z,21.30
2022-11-23T14:10:31.483Z,21.10
2022-11-23T14:13:02.500Z,20.90
2022-11-23T14:15:32.558Z,20.80
2022-11-23T14:18:15.533Z,20.70
2022-11-23T14:20:51.102Z,20.50
2022-11-23T14:23:38.753Z,20.40
2022-11-23T14:26:16.136Z,20.30
2022-11-23T14:28:52.401Z,20.20
2022-11-23T14:31:24.174Z,20.10
2022-11-23T14:33:56.460Z,20.00
2022-11-23T14:36:29.556Z,19.90
2022-11-23T14:39:27.004Z,19.90
2022-11-23T14:41:56.512Z,19.80
2022-11-23T14:44:26.539Z,19.70
2022-11-23T14:47:00.909Z,19.60
2022-11-23T14:49:30.417Z,19.60
2022-11-23T14:51:58.351Z,19.60
2022-11-23T14:54:26.987Z,19.50
2022-11-23T14:56:55.105Z,19.50
2022-11-23T14:59:24.809Z,19.40
2022-11-23T15:01:54.017Z,19.40
2022-11-23T15:04:26.454Z,19.30
2022-11-23T15:06:58.196Z,19.30
2022-11-23T15:09:35.024Z,19.20
2022-11-23T15:12:10.079Z,19.10
2022-11-23T15:14:44.434Z,19.10
2022-11-23T15:17:16.168Z,19.00
2022-11-23T15:19:44.158Z,18.90
2022-11-23T15:22:18.181Z,18.90
2022-11-23T15:24:46.722Z,18.90
2022-11-23T15:27:17.828Z,18.80
2022-11-23T15:29:52.657Z,18.70
2022-11-23T15:32:31.489Z,18.70
2022-11-23T15:35:02.815Z,18.60
2022-11-23T15:37:32.365Z,18.50
2022-11-23T15:40:00.435Z,18.50
2022-11-23T15:42:28.601Z,18.50
2022-11-23T15:44:56.746Z,18.40
2022-11-23T15:47:27.406Z,18.40
2022-11-23T15:49:58.485Z,18.40
2022-11-23T15:52:26.940Z,18.30
2022-11-23T15:54:56.423Z,18.30
2022-11-23T15:57:26.554Z,18.30
2022-11-23T15:59:57.019Z,18.20
2022-11-23T16:02:26.227Z,18.20
2022-11-23T16:05:05.695Z,18.10
2022-11-23T16:07:34.131Z,18.10
2022-11-23T16:10:14.893Z,18.10
2022-11-23T16:12:49.155Z,18.10
2022-11-23T16:15:38.383Z,18.00
2022-11-23T16:18:06.708Z,18.00
2022-11-23T16:20:34.624Z,17.90
2022-11-23T16:23:02.611Z,17.90
2022-11-23T16:25:32.849Z,17.80
2022-11-23T16:28:00.958Z,17.90
2022-11-23T16:30:35.989Z,17.80
2022-11-23T16:33:03.892Z,17.80
2022-11-23T16:35:31.972Z,17.80
2022-11-23T16:37:59.731Z,17.70
2022-11-23T16:40:27.665Z,17.70
2022-11-23T16:42:57.367Z,17.70
2022-11-23T16:45:25.815Z,17.70
2022-11-23T16:47:54.605Z,17.60
2022-11-23T16:50:23.177Z,17.60
2022-11-23T16:52:51.159Z,17.60
2022-11-23T16:55:19.620Z,17.60
2022-11-23T16:57:47.714Z,17.60
2022-11-23T17:00:19.016Z,17.50
2022-11-23T17:02:46.886Z,17.50
2022-11-23T17:05:16.179Z,17.50
2022-11-23T17:07:44.301Z,17.50
2022-11-23T17:10:12.572Z,17.40
2022-11-23T17:12:40.758Z,17.40
2022-11-23T17:15:11.659Z,17.40
2022-11-23T17:17:41.326Z,17.40
2022-11-23T17:20:10.943Z,17.40
2022-11-23T17:22:38.706Z,17.40
2022-11-23T17:25:13.092Z,17.30
2022-11-23T17:27:44.004Z,17.30
2022-11-23T17:30:14.089Z,17.30
2022-11-23T17:32:43.831Z,17.30
2022-11-23T17:35:11.718Z,17.20
2022-11-23T17:37:39.968Z,17.20
2022-11-23T17:40:14.336Z,17.20
2022-11-23T17:42:42.327Z,17.20
2022-11-23T17:45:10.822Z,17.20
2022-11-23T17:47:39.229Z,17.10
2022-11-23T17:50:12.609Z,17.10
2022-11-23T17:52:44.370Z,17.20
2022-11-23T17:55:13.238Z,17.10
2022-11-23T17:57:41.201Z,17.10
2022-11-23T18:00:15.108Z,17.10
2022-11-23T18:02:43.082Z,17.10
2022-11-23T18:05:16.478Z,17.10
2022-11-23T18:07:48.612Z,17.00
2022-11-23T18:10:17.630Z,17.00
2022-11-23T18:12:45.655Z,17.00
2022-11-23T18:15:14.288Z,17.00
2022-11-23T18:17:42.370Z,17.00
2022-11-23T18:20:13.391Z,17.00
2022-11-23T18:22:41.853Z,17.00
2022-11-23T18:25:10.635Z,17.00
2022-11-23T18:27:39.180Z,16.90
2022-11-23T18:30:08.319Z,17.00
2022-11-23T18:32:36.992Z,17.00
2022-11-23T18:35:05.736Z,17.00
2022-11-23T18:37:35.118Z,17.00
2022-11-23T18:40:03.321Z,17.00
2022-11-23T18:42:31.326Z,17.00
2022-11-23T18:44:59.336Z,17.00
2022-11-23T18:47:28.427Z,17.00
2022-11-23T18:49:58.795Z,17.00
2022-11-23T18:52:30.425Z,17.00
2022-11-23T18:55:00.779Z,17.00
2022-11-23T18:57:28.884Z,17.00
2022-11-23T18:59:58.701Z,17.00
2022-11-23T19:02:27.215Z,17.00
2022-11-23T19:04:55.560Z,17.00
2022-11-23T19:07:27.225Z,17.00
2022-11-23T19:09:56.094Z,17.00
2022-11-23T19:12:25.556Z,17.00
2022-11-23T19:14:54.189Z,17.00
2022-11-23T19:17:22.280Z,17.00
2022-11-23T19:19:50.358Z,17.00
2022-11-23T19:22:18.345Z,17.00
2022-11-23T19:24:46.374Z,17.00
2022-11-23T19:27:14.387Z,17.00
2022-11-23T19:29:43.843Z,17.00
2022-11-23T19:32:12.262Z,16.90
2022-11-23T19:34:40.284Z,16.90
2022-11-23T19:37:08.623Z,17.00
2022-11-23T19:39:37.207Z,17.00
2022-11-23T19:42:05.737Z,17.00
2022-11-23T19:44:33.704Z,17.00
2022-11-23T19:47:07.247Z,17.00
2022-11-23T19:49:38.252Z,16.90
2022-11-23T19:52:06.971Z,16.90
2022-11-23T19:54:34.824Z,16.90
2022-11-23T19:57:03.514Z,16.90
2022-11-23T19:59:31.900Z,16.90
2022-11-23T20:02:00.510Z,16.80
2022-11-23T20:04:30.315Z,16.80
2022-11-23T20:06:58.317Z,16.80
2022-11-23T20:09:27.843Z,16.80
2022-11-23T20:11:55.864Z,16.70
2022-11-23T20:14:23.831Z,16.70
2022-11-23T20:16:52.198Z,16.70
2022-11-23T20:19:20.301Z,16.70
2022-11-23T20:21:49.723Z,16.60
2022-11-23T20:24:17.837Z,16.60
2022-11-23T20:26:46.056Z,16.60
2022-11-23T20:29:15.411Z,16.60
2022-11-23T20:31:43.496Z,16.60
2022-11-23T20:34:15.509Z,16.60
2022-11-23T20:36:46.366Z,16.60
2022-11-23T20:39:16.737Z,16.60
2022-11-23T20:41:45.195Z,16.60
2022-11-23T20:44:14.315Z,16.50
2022-11-23T20:49:31.377Z,16.60
2022-11-23T20:51:59.605Z,16.50
2022-11-23T20:54:29.443Z,16.50
2022-11-23T20:56:59.941Z,16.50
2022-11-23T20:59:28.527Z,16.50
2022-11-23T21:01:56.683Z,16.50
2022-11-23T21:04:25.437Z,16.50
2022-11-23T21:06:53.400Z,16.50
2022-11-23T21:09:21.502Z,16.50
2022-11-23T21:12:08.233Z,16.50
2022-11-23T21:14:37.272Z,16.50
2022-11-23T21:17:05.318Z,16.50
2022-11-23T21:19:34.503Z,16.50
2022-11-23T21:22:04.987Z,16.50
2022-11-23T21:24:35.723Z,16.50
2022-11-23T21:27:06.031Z,16.50
2022-11-23T21:29:33.958Z,16.50
2022-11-23T21:32:02.707Z,16.50
2022-11-23T21:34:30.745Z,16.40
2022-11-23T21:36:58.757Z,16.40
2022-11-23T21:39:26.797Z,16.40
2022-11-23T21:41:55.592Z,16.40
2022-11-23T21:44:24.985Z,16.40
2022-11-23T21:46:53.638Z,16.50
2022-11-23T21:49:21.786Z,16.40
2022-11-23T21:51:50.002Z,16.50
2022-11-23T21:54:18.059Z,16.40
2022-11-23T21:56:47.004Z,16.40
2022-11-23T21:59:15.053Z,16.50
2022-11-23T22:01:44.480Z,16.50
2022-11-23T22:04:13.159Z,16.50
2022-11-23T22:06:42.412Z,16.50
2022-11-23T22:09:10.879Z,16.40
2022-11-23T22:11:41.470Z,16.40
2022-11-23T22:14:11.881Z,16.50
2022-11-23T22:16:41.074Z,16.50
2022-11-23T22:19:11.198Z,16.50
2022-11-23T22:21:40.208Z,16.40
2022-11-23T22:24:10.792Z,16.40
2022-11-23T22:26:38.791Z,16.40
2022-11-23T22:29:07.251Z,16.40
2022-11-23T22:31:35.667Z,16.40
2022-11-23T22:34:04.558Z,16.40
2022-11-23T22:36:34.063Z,16.40
2022-11-23T22:39:03.150Z,16.50
2022-11-23T22:41:33.370Z,16.40
2022-11-23T22:44:01.299Z,16.50
2022-11-23T22:46:29.810Z,16.40
2022-11-23T22:48:59.680Z,16.40
2022-11-23T22:51:28.508Z,16.40
2022-11-23T22:53:58.564Z,16.40
2022-11-23T22:56:26.776Z,16.40
2022-11-23T22:58:54.697Z,16.40
2022-11-23T23:01:23.577Z,16.40
2022-11-23T23:03:53.491Z,16.40
2022-11-23T23:06:22.595Z,16.40
2022-11-23T23:08:53.827Z,16.30
2022-11-23T23:11:23.825Z,16.30
2022-11-23T23:13:52.026Z,16.40
2022-11-23T23:16:20.374Z,16.40
2022-11-23T23:18:48.431Z,16.40
2022-11-23T23:21:17.198Z,16.40
2022-11-23T23:23:45.908Z,16.40
2022-11-23T23:26:15.064Z,16.40
2022-11-23T23:28:44.559Z,16.40
2022-11-23T23:31:14.152Z,16.40
2022-11-23T23:33:42.245Z,16.30
2022-11-23T23:36:11.600Z,16.30
2022-11-23T23:38:39.816Z,16.30
2022-11-23T23:41:08.378Z,16.40
2022-11-23T23:43:36.245Z,16.30
2022-11-23T23:46:06.560Z,16.30
2022-11-23T23:48:35.128Z,16.30
2022-11-23T23:51:06.111Z,16.30
2022-11-23T23:53:34.186Z,16.30
2022-11-23T23:56:03.574Z,16.30
2022-11-23T23:58:31.425Z,16.30
